sensor_id;sensor_type;location;lat;lon;timestamp;P1;durP1;ratioP1;P2;durP2;ratioP2
1977;SDS011;989;53.016;8.346;2022-08-11T00:00:04;5.80;;;4.27;;
1977;SDS011;989;53.016;8.346;2022-08-11T00:02:40;7.27;;;5.00;;
1977;SDS011;989;53.016;8.346;2022-08-11T00:05:14;6.10;;;4.07;;
1977;SDS011;989;53.016;8.346;2022-08-11T00:07:46;4.43;;;3.67;;
1977;SDS011;989;53.016;8.346;2022-08-11T00:10:18;5.53;;;4.43;;
1977;SDS011;989;53.016;8.346;2022-08-11T00:13:05;6.40;;;4.80;;
1977;SDS011;989;53.016;8.346;2022-08-11T00:15:40;5.87;;;4.07;;
1977;SDS011;989;53.016;8.346;2022-08-11T00:18:08;7.93;;;4.23;;
1977;SDS011;989;53.016;8.346;2022-08-11T00:20:37;7.37;;;4.63;;
1977;SDS011;989;53.016;8.346;2022-08-11T00:23:07;7.10;;;4.03;;
1977;SDS011;989;53.016;8.346;2022-08-11T00:25:39;7.27;;;4.50;;
1977;SDS011;989;53.016;8.346;2022-08-11T00:30:51;6.43;;;4.13;;
1977;SDS011;989;53.016;8.346;2022-08-11T00:33:19;19.33;;;5.73;;
1977;SDS011;989;53.016;8.346;2022-08-11T00:35:56;9.90;;;5.20;;
1977;SDS011;989;53.016;8.346;2022-08-11T00:38:25;6.90;;;4.47;;
1977;SDS011;989;53.016;8.346;2022-08-11T00:41:03;5.97;;;5.30;;
1977;SDS011;989;53.016;8.346;2022-08-11T00:43:55;9.33;;;5.67;;
1977;SDS011;989;53.016;8.346;2022-08-11T00:58:15;10.03;;;5.70;;
1977;SDS011;989;53.016;8.346;2022-08-11T01:03:58;9.13;;;5.27;;
1977;SDS011;989;53.016;8.346;2022-08-11T01:12:44;9.57;;;6.47;;
1977;SDS011;989;53.016;8.346;2022-08-11T01:15:46;19.30;;;6.13;;
1977;SDS011;989;53.016;8.346;2022-08-11T01:18:43;10.33;;;6.13;;
1977;SDS011;989;53.016;8.346;2022-08-11T01:25:06;13.73;;;6.30;;
1977;SDS011;989;53.016;8.346;2022-08-11T01:28:45;12.30;;;5.83;;
1977;SDS011;989;53.016;8.346;2022-08-11T01:40:39;18.10;;;5.93;;
1977;SDS011;989;53.016;8.346;2022-08-11T01:47:05;13.33;;;6.27;;
1977;SDS011;989;53.016;8.346;2022-08-11T01:50:27;10.70;;;7.80;;
1977;SDS011;989;53.016;8.346;2022-08-11T01:53:35;10.10;;;6.83;;
1977;SDS011;989;53.016;8.346;2022-08-11T01:59:24;11.57;;;6.23;;
1977;SDS011;989;53.016;8.346;2022-08-11T02:23:28;9.40;;;5.20;;
1977;SDS011;989;53.016;8.346;2022-08-11T02:26:21;8.90;;;4.90;;
1977;SDS011;989;53.016;8.346;2022-08-11T02:32:03;9.57;;;5.30;;
1977;SDS011;989;53.016;8.346;2022-08-11T02:40:52;12.70;;;5.50;;
1977;SDS011;989;53.016;8.346;2022-08-11T02:43:30;10.13;;;5.83;;
1977;SDS011;989;53.016;8.346;2022-08-11T02:46:16;8.53;;;6.10;;
1977;SDS011;989;53.016;8.346;2022-08-11T02:49:39;10.60;;;5.70;;
1977;SDS011;989;53.016;8.346;2022-08-11T02:52:22;10.73;;;6.50;;
1977;SDS011;989;53.016;8.346;2022-08-11T02:55:13;8.57;;;6.77;;
1977;SDS011;989;53.016;8.346;2022-08-11T02:57:53;8.40;;;5.20;;
1977;SDS011;989;53.016;8.346;2022-08-11T03:01:02;12.27;;;7.33;;
1977;SDS011;989;53.016;8.346;2022-08-11T03:10:21;8.33;;;5.80;;
1977;SDS011;989;53.016;8.346;2022-08-11T03:16:19;9.80;;;6.10;;
1977;SDS011;989;53.016;8.346;2022-08-11T03:22:24;8.00;;;4.70;;
1977;SDS011;989;53.016;8.346;2022-08-11T03:25:04;5.63;;;4.13;;
1977;SDS011;989;53.016;8.346;2022-08-11T03:30:17;9.00;;;4.90;;
1977;SDS011;989;53.016;8.346;2022-08-11T03:36:21;7.23;;;5.20;;
1977;SDS011;989;53.016;8.346;2022-08-11T03:39:17;13.80;;;6.07;;
1977;SDS011;989;53.016;8.346;2022-08-11T03:50:44;13.70;;;5.83;;
1977;SDS011;989;53.016;8.346;2022-08-11T04:02:16;8.73;;;4.40;;
1977;SDS011;989;53.016;8.346;2022-08-11T04:08:30;8.47;;;5.23;;
1977;SDS011;989;53.016;8.346;2022-08-11T04:17:57;7.90;;;4.80;;
1977;SDS011;989;53.016;8.346;2022-08-11T04:23:49;5.57;;;4.80;;
1977;SDS011;989;53.016;8.346;2022-08-11T04:26:31;7.20;;;4.90;;
1977;SDS011;989;53.016;8.346;2022-08-11T04:38:04;13.30;;;5.10;;
1977;SDS011;989;53.016;8.346;2022-08-11T04:50:30;9.83;;;4.80;;
1977;SDS011;989;53.016;8.346;2022-08-11T04:57:13;10.30;;;3.67;;
1977;SDS011;989;53.016;8.346;2022-08-11T05:00:53;8.20;;;4.40;;
1977;SDS011;989;53.016;8.346;2022-08-11T05:13:11;7.60;;;3.60;;
1977;SDS011;989;53.016;8.346;2022-08-11T05:16:13;12.73;;;3.73;;
1977;SDS011;989;53.016;8.346;2022-08-11T05:19:02;6.87;;;3.57;;
1977;SDS011;989;53.016;8.346;2022-08-11T05:21:54;10.30;;;4.60;;
1977;SDS011;989;53.016;8.346;2022-08-11T05:24:47;7.53;;;4.13;;
1977;SDS011;989;53.016;8.346;2022-08-11T05:27:39;9.90;;;4.13;;
1977;SDS011;989;53.016;8.346;2022-08-11T05:30:33;8.63;;;4.10;;
1977;SDS011;989;53.016;8.346;2022-08-11T05:37:22;6.13;;;3.90;;
1977;SDS011;989;53.016;8.346;2022-08-11T05:40:05;6.60;;;3.63;;
1977;SDS011;989;53.016;8.346;2022-08-11T05:42:58;15.47;;;4.63;;
1977;SDS011;989;53.016;8.346;2022-08-11T05:46:00;10.77;;;4.40;;
1977;SDS011;989;53.016;8.346;2022-08-11T05:48:47;10.53;;;4.20;;
1977;SDS011;989;53.016;8.346;2022-08-11T05:51:34;9.07;;;4.13;;
1977;SDS011;989;53.016;8.346;2022-08-11T05:54:25;9.53;;;4.20;;
1977;SDS011;989;53.016;8.346;2022-08-11T05:57:17;6.10;;;4.10;;
1977;SDS011;989;53.016;8.346;2022-08-11T05:59:46;5.17;;;3.63;;
1977;SDS011;989;53.016;8.346;2022-08-11T06:02:12;5.20;;;3.40;;
1977;SDS011;989;53.016;8.346;2022-08-11T06:04:39;6.20;;;4.00;;
1977;SDS011;989;53.016;8.346;2022-08-11T06:07:06;7.17;;;3.53;;
1977;SDS011;989;53.016;8.346;2022-08-11T06:09:35;6.57;;;3.60;;
1977;SDS011;989;53.016;8.346;2022-08-11T06:12:18;9.80;;;3.90;;
1977;SDS011;989;53.016;8.346;2022-08-11T06:14:49;6.73;;;3.23;;
1977;SDS011;989;53.016;8.346;2022-08-11T06:17:26;5.20;;;3.40;;
1977;SDS011;989;53.016;8.346;2022-08-11T06:19:58;6.30;;;4.07;;
1977;SDS011;989;53.016;8.346;2022-08-11T06:22:28;11.20;;;4.00;;
1977;SDS011;989;53.016;8.346;2022-08-11T06:24:56;7.20;;;3.53;;
1977;SDS011;989;53.016;8.346;2022-08-11T06:27:25;7.60;;;4.37;;
1977;SDS011;989;53.016;8.346;2022-08-11T06:29:58;4.50;;;3.70;;
1977;SDS011;989;53.016;8.346;2022-08-11T06:32:28;10.67;;;3.80;;
1977;SDS011;989;53.016;8.346;2022-08-11T06:35:00;6.27;;;3.60;;
1977;SDS011;989;53.016;8.346;2022-08-11T06:37:52;7.00;;;3.50;;
1977;SDS011;989;53.016;8.346;2022-08-11T06:43:33;9.13;;;3.40;;
1977;SDS011;989;53.016;8.346;2022-08-11T06:46:14;5.60;;;3.30;;
1977;SDS011;989;53.016;8.346;2022-08-11T06:48:50;8.83;;;3.10;;
1977;SDS011;989;53.016;8.346;2022-08-11T06:51:18;17.17;;;3.87;;
1977;SDS011;989;53.016;8.346;2022-08-11T06:53:45;4.60;;;3.17;;
1977;SDS011;989;53.016;8.346;2022-08-11T06:56:21;9.03;;;3.67;;
1977;SDS011;989;53.016;8.346;2022-08-11T06:59:09;7.43;;;2.70;;
1977;SDS011;989;53.016;8.346;2022-08-11T07:02:05;5.37;;;2.97;;
1977;SDS011;989;53.016;8.346;2022-08-11T07:04:44;8.33;;;3.50;;
1977;SDS011;989;53.016;8.346;2022-08-11T07:10:32;6.37;;;2.73;;
1977;SDS011;989;53.016;8.346;2022-08-11T07:13:53;12.87;;;3.90;;
1977;SDS011;989;53.016;8.346;2022-08-11T07:16:42;5.77;;;3.13;;
1977;SDS011;989;53.016;8.346;2022-08-11T07:19:12;3.73;;;3.07;;
1977;SDS011;989;53.016;8.346;2022-08-11T07:22:02;4.63;;;2.80;;
1977;SDS011;989;53.016;8.346;2022-08-11T07:24:53;5.90;;;3.20;;
1977;SDS011;989;53.016;8.346;2022-08-11T07:27:44;5.13;;;3.03;;
1977;SDS011;989;53.016;8.346;2022-08-11T07:30:39;4.60;;;2.93;;
1977;SDS011;989;53.016;8.346;2022-08-11T07:33:06;13.23;;;3.40;;
1977;SDS011;989;53.016;8.346;2022-08-11T07:35:35;9.50;;;3.33;;
1977;SDS011;989;53.016;8.346;2022-08-11T07:38:17;4.27;;;2.33;;
1977;SDS011;989;53.016;8.346;2022-08-11T07:41:11;5.37;;;3.13;;
1977;SDS011;989;53.016;8.346;2022-08-11T07:43:40;7.80;;;3.07;;
1977;SDS011;989;53.016;8.346;2022-08-11T07:46:07;3.23;;;2.80;;
1977;SDS011;989;53.016;8.346;2022-08-11T07:49:05;7.93;;;2.90;;
1977;SDS011;989;53.016;8.346;2022-08-11T07:51:52;5.33;;;2.63;;
1977;SDS011;989;53.016;8.346;2022-08-11T07:54:37;8.80;;;2.87;;
1977;SDS011;989;53.016;8.346;2022-08-11T07:57:07;8.40;;;3.50;;
1977;SDS011;989;53.016;8.346;2022-08-11T07:59:52;3.70;;;3.03;;
1977;SDS011;989;53.016;8.346;2022-08-11T08:02:40;3.57;;;2.80;;
1977;SDS011;989;53.016;8.346;2022-08-11T08:05:26;6.30;;;3.43;;
1977;SDS011;989;53.016;8.346;2022-08-11T08:08:12;6.87;;;3.10;;
1977;SDS011;989;53.016;8.346;2022-08-11T08:10:58;10.90;;;4.10;;
1977;SDS011;989;53.016;8.346;2022-08-11T08:13:44;5.13;;;3.00;;
1977;SDS011;989;53.016;8.346;2022-08-11T08:16:29;2.80;;;2.43;;
1977;SDS011;989;53.016;8.346;2022-08-11T08:19:14;7.00;;;2.90;;
1977;SDS011;989;53.016;8.346;2022-08-11T08:21:43;17.73;;;3.40;;
1977;SDS011;989;53.016;8.346;2022-08-11T08:24:11;4.63;;;3.20;;
1977;SDS011;989;53.016;8.346;2022-08-11T08:26:38;6.27;;;3.27;;
1977;SDS011;989;53.016;8.346;2022-08-11T08:29:22;3.70;;;2.60;;
1977;SDS011;989;53.016;8.346;2022-08-11T08:32:08;7.10;;;3.00;;
1977;SDS011;989;53.016;8.346;2022-08-11T08:34:36;8.30;;;3.20;;
1977;SDS011;989;53.016;8.346;2022-08-11T08:37:02;12.30;;;4.40;;
1977;SDS011;989;53.016;8.346;2022-08-11T08:39:30;8.57;;;3.67;;
1977;SDS011;989;53.016;8.346;2022-08-11T08:41:58;4.13;;;2.30;;
1977;SDS011;989;53.016;8.346;2022-08-11T08:44:32;3.53;;;2.70;;
1977;SDS011;989;53.016;8.346;2022-08-11T08:47:00;3.47;;;2.33;;
1977;SDS011;989;53.016;8.346;2022-08-11T08:49:30;4.27;;;2.77;;
1977;SDS011;989;53.016;8.346;2022-08-11T08:52:01;6.80;;;2.50;;
1977;SDS011;989;53.016;8.346;2022-08-11T08:54:34;4.77;;;2.80;;
1977;SDS011;989;53.016;8.346;2022-08-11T08:57:03;4.10;;;2.13;;
1977;SDS011;989;53.016;8.346;2022-08-11T08:59:31;3.07;;;2.40;;
1977;SDS011;989;53.016;8.346;2022-08-11T09:02:04;3.90;;;2.43;;
1977;SDS011;989;53.016;8.346;2022-08-11T09:04:31;4.00;;;2.90;;
1977;SDS011;989;53.016;8.346;2022-08-11T09:06:58;4.90;;;2.63;;
1977;SDS011;989;53.016;8.346;2022-08-11T09:09:31;3.87;;;2.70;;
1977;SDS011;989;53.016;8.346;2022-08-11T09:11:57;8.47;;;2.53;;
1977;SDS011;989;53.016;8.346;2022-08-11T09:14:26;2.87;;;2.20;;
1977;SDS011;989;53.016;8.346;2022-08-11T09:17:21;13.20;;;2.23;;
1977;SDS011;989;53.016;8.346;2022-08-11T09:19:50;2.63;;;1.97;;
1977;SDS011;989;53.016;8.346;2022-08-11T09:22:33;5.93;;;2.70;;
1977;SDS011;989;53.016;8.346;2022-08-11T09:25:21;8.63;;;2.17;;
1977;SDS011;989;53.016;8.346;2022-08-11T09:28:10;5.40;;;2.30;;
1977;SDS011;989;53.016;8.346;2022-08-11T09:30:42;4.37;;;2.40;;
1977;SDS011;989;53.016;8.346;2022-08-11T09:33:10;3.40;;;2.10;;
1977;SDS011;989;53.016;8.346;2022-08-11T09:35:40;6.53;;;2.60;;
1977;SDS011;989;53.016;8.346;2022-08-11T09:38:09;3.30;;;2.20;;
1977;SDS011;989;53.016;8.346;2022-08-11T09:40:56;3.30;;;2.13;;
1977;SDS011;989;53.016;8.346;2022-08-11T09:43:24;3.10;;;2.50;;
1977;SDS011;989;53.016;8.346;2022-08-11T09:46:11;7.73;;;1.93;;
1977;SDS011;989;53.016;8.346;2022-08-11T09:48:39;4.13;;;2.17;;
1977;SDS011;989;53.016;8.346;2022-08-11T09:51:09;3.80;;;2.20;;
1977;SDS011;989;53.016;8.346;2022-08-11T09:53:37;3.20;;;2.40;;
1977;SDS011;989;53.016;8.346;2022-08-11T09:56:07;10.23;;;2.80;;
1977;SDS011;989;53.016;8.346;2022-08-11T09:59:04;3.13;;;2.17;;
1977;SDS011;989;53.016;8.346;2022-08-11T10:01:38;3.00;;;2.40;;
1977;SDS011;989;53.016;8.346;2022-08-11T10:04:14;3.47;;;2.27;;
1977;SDS011;989;53.016;8.346;2022-08-11T10:06:43;4.30;;;2.30;;
1977;SDS011;989;53.016;8.346;2022-08-11T10:09:26;6.07;;;2.40;;
1977;SDS011;989;53.016;8.346;2022-08-11T10:12:09;3.67;;;2.20;;
1977;SDS011;989;53.016;8.346;2022-08-11T10:14:55;3.00;;;2.20;;
1977;SDS011;989;53.016;8.346;2022-08-11T10:17:46;4.20;;;2.73;;
1977;SDS011;989;53.016;8.346;2022-08-11T10:20:33;8.20;;;2.63;;
1977;SDS011;989;53.016;8.346;2022-08-11T10:23:01;4.20;;;2.60;;
1977;SDS011;989;53.016;8.346;2022-08-11T10:25:46;4.80;;;2.20;;
1977;SDS011;989;53.016;8.346;2022-08-11T10:28:32;3.67;;;2.37;;
1977;SDS011;989;53.016;8.346;2022-08-11T10:31:00;4.90;;;2.80;;
1977;SDS011;989;53.016;8.346;2022-08-11T10:33:47;5.20;;;2.77;;
1977;SDS011;989;53.016;8.346;2022-08-11T10:36:28;4.53;;;2.70;;
1977;SDS011;989;53.016;8.346;2022-08-11T10:38:58;9.37;;;2.60;;
1977;SDS011;989;53.016;8.346;2022-08-11T10:41:26;6.70;;;2.40;;
1977;SDS011;989;53.016;8.346;2022-08-11T10:44:11;3.20;;;2.70;;
1977;SDS011;989;53.016;8.346;2022-08-11T10:46:37;3.90;;;2.60;;
1977;SDS011;989;53.016;8.346;2022-08-11T10:49:22;4.47;;;2.67;;
1977;SDS011;989;53.016;8.346;2022-08-11T10:51:50;6.40;;;2.57;;
1977;SDS011;989;53.016;8.346;2022-08-11T10:54:38;4.37;;;2.37;;
1977;SDS011;989;53.016;8.346;2022-08-11T10:57:24;3.83;;;2.70;;
1977;SDS011;989;53.016;8.346;2022-08-11T11:00:11;6.77;;;3.03;;
1977;SDS011;989;53.016;8.346;2022-08-11T11:02:44;9.70;;;2.60;;
1977;SDS011;989;53.016;8.346;2022-08-11T11:05:22;5.13;;;2.40;;
1977;SDS011;989;53.016;8.346;2022-08-11T11:07:57;3.00;;;2.43;;
1977;SDS011;989;53.016;8.346;2022-08-11T11:10:53;4.50;;;2.97;;
1977;SDS011;989;53.016;8.346;2022-08-11T11:13:20;4.50;;;2.83;;
1977;SDS011;989;53.016;8.346;2022-08-11T11:16:07;6.23;;;2.70;;
1977;SDS011;989;53.016;8.346;2022-08-11T11:18:53;5.80;;;3.10;;
1977;SDS011;989;53.016;8.346;2022-08-11T11:21:20;4.73;;;2.40;;
1977;SDS011;989;53.016;8.346;2022-08-11T11:27:20;5.43;;;2.67;;
1977;SDS011;989;53.016;8.346;2022-08-11T11:30:18;4.70;;;2.90;;
1977;SDS011;989;53.016;8.346;2022-08-11T11:32:55;3.63;;;2.80;;
1977;SDS011;989;53.016;8.346;2022-08-11T11:38:36;8.00;;;3.13;;
1977;SDS011;989;53.016;8.346;2022-08-11T11:41:02;8.23;;;4.20;;
1977;SDS011;989;53.016;8.346;2022-08-11T11:43:46;7.17;;;2.50;;
1977;SDS011;989;53.016;8.346;2022-08-11T11:46:12;5.40;;;2.87;;
1977;SDS011;989;53.016;8.346;2022-08-11T11:48:38;6.03;;;2.70;;
1977;SDS011;989;53.016;8.346;2022-08-11T11:51:05;4.23;;;2.87;;
1977;SDS011;989;53.016;8.346;2022-08-11T11:53:32;3.67;;;2.47;;
1977;SDS011;989;53.016;8.346;2022-08-11T11:55:59;4.03;;;3.07;;
1977;SDS011;989;53.016;8.346;2022-08-11T11:58:25;4.03;;;2.50;;
1977;SDS011;989;53.016;8.346;2022-08-11T12:01:10;8.70;;;3.10;;
1977;SDS011;989;53.016;8.346;2022-08-11T12:03:40;5.83;;;2.70;;
1977;SDS011;989;53.016;8.346;2022-08-11T12:06:11;3.77;;;2.30;;
1977;SDS011;989;53.016;8.346;2022-08-11T12:08:38;5.07;;;2.97;;
1977;SDS011;989;53.016;8.346;2022-08-11T12:11:05;14.77;;;4.67;;
1977;SDS011;989;53.016;8.346;2022-08-11T12:13:54;3.30;;;2.13;;
1977;SDS011;989;53.016;8.346;2022-08-11T12:16:24;3.50;;;2.37;;
1977;SDS011;989;53.016;8.346;2022-08-11T12:18:51;3.37;;;2.47;;
1977;SDS011;989;53.016;8.346;2022-08-11T12:21:21;3.30;;;2.20;;
1977;SDS011;989;53.016;8.346;2022-08-11T12:23:48;26.63;;;2.40;;
1977;SDS011;989;53.016;8.346;2022-08-11T12:26:34;5.30;;;2.30;;
1977;SDS011;989;53.016;8.346;2022-08-11T12:29:13;3.30;;;2.33;;
1977;SDS011;989;53.016;8.346;2022-08-11T12:31:43;4.93;;;2.20;;
1977;SDS011;989;53.016;8.346;2022-08-11T12:34:10;7.07;;;2.47;;
1977;SDS011;989;53.016;8.346;2022-08-11T12:36:45;4.00;;;2.00;;
1977;SDS011;989;53.016;8.346;2022-08-11T12:39:19;3.03;;;2.13;;
1977;SDS011;989;53.016;8.346;2022-08-11T12:42:09;2.20;;;1.90;;
1977;SDS011;989;53.016;8.346;2022-08-11T12:44:57;8.43;;;2.23;;
1977;SDS011;989;53.016;8.346;2022-08-11T12:47:43;4.47;;;2.20;;
1977;SDS011;989;53.016;8.346;2022-08-11T12:50:32;4.23;;;2.23;;
1977;SDS011;989;53.016;8.346;2022-08-11T12:53:19;3.37;;;2.33;;
1977;SDS011;989;53.016;8.346;2022-08-11T12:55:52;2.43;;;2.20;;
1977;SDS011;989;53.016;8.346;2022-08-11T12:58:40;5.63;;;2.63;;
1977;SDS011;989;53.016;8.346;2022-08-11T13:01:07;5.80;;;2.10;;
1977;SDS011;989;53.016;8.346;2022-08-11T13:03:51;5.10;;;2.73;;
1977;SDS011;989;53.016;8.346;2022-08-11T13:06:37;3.80;;;2.40;;
1977;SDS011;989;53.016;8.346;2022-08-11T13:09:05;13.20;;;2.30;;
1977;SDS011;989;53.016;8.346;2022-08-11T13:11:33;5.07;;;2.63;;
1977;SDS011;989;53.016;8.346;2022-08-11T13:14:19;5.30;;;2.50;;
1977;SDS011;989;53.016;8.346;2022-08-11T13:16:45;12.37;;;2.40;;
1977;SDS011;989;53.016;8.346;2022-08-11T13:19:30;2.53;;;2.20;;
1977;SDS011;989;53.016;8.346;2022-08-11T13:21:58;2.40;;;1.90;;
1977;SDS011;989;53.016;8.346;2022-08-11T13:24:25;3.63;;;2.27;;
1977;SDS011;989;53.016;8.346;2022-08-11T13:26:52;6.53;;;2.50;;
1977;SDS011;989;53.016;8.346;2022-08-11T13:29:25;5.10;;;1.97;;
1977;SDS011;989;53.016;8.346;2022-08-11T13:31:53;2.47;;;2.23;;
1977;SDS011;989;53.016;8.346;2022-08-11T13:34:25;9.50;;;2.10;;
1977;SDS011;989;53.016;8.346;2022-08-11T13:36:56;4.67;;;2.20;;
1977;SDS011;989;53.016;8.346;2022-08-11T13:39:26;2.87;;;2.00;;
1977;SDS011;989;53.016;8.346;2022-08-11T13:41:55;5.27;;;1.93;;
1977;SDS011;989;53.016;8.346;2022-08-11T13:44:24;3.00;;;2.13;;
1977;SDS011;989;53.016;8.346;2022-08-11T13:46:54;6.83;;;3.33;;
1977;SDS011;989;53.016;8.346;2022-08-11T13:49:28;2.87;;;2.13;;
1977;SDS011;989;53.016;8.346;2022-08-11T13:51:56;3.13;;;2.13;;
1977;SDS011;989;53.016;8.346;2022-08-11T13:54:26;4.53;;;2.43;;
1977;SDS011;989;53.016;8.346;2022-08-11T13:56:56;3.00;;;2.00;;
1977;SDS011;989;53.016;8.346;2022-08-11T13:59:30;5.67;;;2.23;;
1977;SDS011;989;53.016;8.346;2022-08-11T14:02:00;5.33;;;2.57;;
1977;SDS011;989;53.016;8.346;2022-08-11T14:04:36;3.67;;;2.30;;
1977;SDS011;989;53.016;8.346;2022-08-11T14:07:08;2.77;;;2.20;;
1977;SDS011;989;53.016;8.346;2022-08-11T14:09:36;3.53;;;2.33;;
1977;SDS011;989;53.016;8.346;2022-08-11T14:12:28;4.17;;;2.20;;
1977;SDS011;989;53.016;8.346;2022-08-11T14:15:22;7.50;;;2.33;;
1977;SDS011;989;53.016;8.346;2022-08-11T14:18:00;9.20;;;2.40;;
1977;SDS011;989;53.016;8.346;2022-08-11T14:20:31;7.23;;;2.30;;
1977;SDS011;989;53.016;8.346;2022-08-11T14:23:20;4.67;;;2.27;;
1977;SDS011;989;53.016;8.346;2022-08-11T14:25:54;2.67;;;2.10;;
1977;SDS011;989;53.016;8.346;2022-08-11T14:28:39;3.97;;;2.50;;
1977;SDS011;989;53.016;8.346;2022-08-11T14:31:06;8.80;;;2.97;;
1977;SDS011;989;53.016;8.346;2022-08-11T14:33:33;5.70;;;2.10;;
1977;SDS011;989;53.016;8.346;2022-08-11T14:36:01;4.30;;;2.40;;
1977;SDS011;989;53.016;8.346;2022-08-11T14:38:30;8.13;;;2.30;;
1977;SDS011;989;53.016;8.346;2022-08-11T14:40:58;2.73;;;2.43;;
1977;SDS011;989;53.016;8.346;2022-08-11T14:43:47;7.53;;;2.70;;
1977;SDS011;989;53.016;8.346;2022-08-11T14:46:32;5.00;;;2.30;;
1977;SDS011;989;53.016;8.346;2022-08-11T14:49:21;4.37;;;2.20;;
1977;SDS011;989;53.016;8.346;2022-08-11T14:51:48;7.67;;;1.90;;
1977;SDS011;989;53.016;8.346;2022-08-11T14:54:17;3.17;;;2.40;;
1977;SDS011;989;53.016;8.346;2022-08-11T14:57:02;5.43;;;2.20;;
1977;SDS011;989;53.016;8.346;2022-08-11T14:59:28;2.63;;;2.07;;
1977;SDS011;989;53.016;8.346;2022-08-11T15:01:54;6.63;;;2.53;;
1977;SDS011;989;53.016;8.346;2022-08-11T15:04:39;3.60;;;2.00;;
1977;SDS011;989;53.016;8.346;2022-08-11T15:07:05;10.03;;;2.13;;
1977;SDS011;989;53.016;8.346;2022-08-11T15:09:31;4.50;;;2.20;;
1977;SDS011;989;53.016;8.346;2022-08-11T15:11:57;6.80;;;2.17;;
1977;SDS011;989;53.016;8.346;2022-08-11T15:14:36;6.03;;;2.47;;
1977;SDS011;989;53.016;8.346;2022-08-11T15:17:21;6.23;;;2.20;;
1977;SDS011;989;53.016;8.346;2022-08-11T15:19:47;4.37;;;2.17;;
1977;SDS011;989;53.016;8.346;2022-08-11T15:22:33;5.47;;;2.40;;
1977;SDS011;989;53.016;8.346;2022-08-11T15:25:17;2.80;;;2.50;;
1977;SDS011;989;53.016;8.346;2022-08-11T15:27:44;6.23;;;2.40;;
1977;SDS011;989;53.016;8.346;2022-08-11T15:30:31;4.30;;;2.17;;
1977;SDS011;989;53.016;8.346;2022-08-11T15:33:17;2.87;;;2.20;;
1977;SDS011;989;53.016;8.346;2022-08-11T15:36:04;3.20;;;2.53;;
1977;SDS011;989;53.016;8.346;2022-08-11T15:39:15;7.83;;;2.50;;
1977;SDS011;989;53.016;8.346;2022-08-11T15:41:53;2.77;;;2.13;;
1977;SDS011;989;53.016;8.346;2022-08-11T15:44:46;6.07;;;2.47;;
1977;SDS011;989;53.016;8.346;2022-08-11T15:47:39;2.70;;;2.10;;
1977;SDS011;989;53.016;8.346;2022-08-11T15:50:12;4.27;;;2.33;;
1977;SDS011;989;53.016;8.346;2022-08-11T15:52:48;2.93;;;2.03;;
1977;SDS011;989;53.016;8.346;2022-08-11T15:55:21;8.10;;;2.67;;
1977;SDS011;989;53.016;8.346;2022-08-11T15:57:49;2.33;;;2.03;;
1977;SDS011;989;53.016;8.346;2022-08-11T16:00:36;5.07;;;2.70;;
1977;SDS011;989;53.016;8.346;2022-08-11T16:03:23;3.97;;;2.20;;
1977;SDS011;989;53.016;8.346;2022-08-11T16:06:08;4.63;;;2.20;;
1977;SDS011;989;53.016;8.346;2022-08-11T16:08:37;6.50;;;2.40;;
1977;SDS011;989;53.016;8.346;2022-08-11T16:11:05;5.93;;;1.90;;
1977;SDS011;989;53.016;8.346;2022-08-11T16:13:33;4.50;;;2.37;;
1977;SDS011;989;53.016;8.346;2022-08-11T16:16:01;5.13;;;2.00;;
1977;SDS011;989;53.016;8.346;2022-08-11T16:18:45;2.90;;;2.27;;
1977;SDS011;989;53.016;8.346;2022-08-11T16:21:29;2.63;;;2.10;;
1977;SDS011;989;53.016;8.346;2022-08-11T16:23:59;3.00;;;2.47;;
1977;SDS011;989;53.016;8.346;2022-08-11T16:26:29;2.30;;;2.00;;
1977;SDS011;989;53.016;8.346;2022-08-11T16:28:57;4.57;;;2.30;;
1977;SDS011;989;53.016;8.346;2022-08-11T16:31:25;2.53;;;2.20;;
1977;SDS011;989;53.016;8.346;2022-08-11T16:33:53;3.00;;;2.23;;
1977;SDS011;989;53.016;8.346;2022-08-11T16:36:22;5.50;;;2.90;;
1977;SDS011;989;53.016;8.346;2022-08-11T16:39:07;8.63;;;2.53;;
1977;SDS011;989;53.016;8.346;2022-08-11T16:41:36;4.23;;;2.10;;
1977;SDS011;989;53.016;8.346;2022-08-11T16:44:24;4.30;;;2.80;;
1977;SDS011;989;53.016;8.346;2022-08-11T16:47:11;4.03;;;2.40;;
1977;SDS011;989;53.016;8.346;2022-08-11T16:49:42;4.50;;;2.27;;
1977;SDS011;989;53.016;8.346;2022-08-11T16:52:12;11.03;;;2.53;;
1977;SDS011;989;53.016;8.346;2022-08-11T16:54:38;3.00;;;2.10;;
1977;SDS011;989;53.016;8.346;2022-08-11T16:57:14;2.27;;;2.07;;
1977;SDS011;989;53.016;8.346;2022-08-11T17:00:03;5.70;;;2.20;;
1977;SDS011;989;53.016;8.346;2022-08-11T17:02:36;9.53;;;2.30;;
1977;SDS011;989;53.016;8.346;2022-08-11T17:05:27;14.67;;;2.50;;
1977;SDS011;989;53.016;8.346;2022-08-11T17:08:17;3.70;;;2.03;;
1977;SDS011;989;53.016;8.346;2022-08-11T17:11:13;13.23;;;2.50;;
1977;SDS011;989;53.016;8.346;2022-08-11T17:14:03;3.00;;;2.07;;
1977;SDS011;989;53.016;8.346;2022-08-11T17:16:36;3.50;;;2.20;;
1977;SDS011;989;53.016;8.346;2022-08-11T17:19:20;6.73;;;2.40;;
1977;SDS011;989;53.016;8.346;2022-08-11T17:21:50;4.70;;;2.03;;
1977;SDS011;989;53.016;8.346;2022-08-11T17:24:37;3.97;;;2.60;;
1977;SDS011;989;53.016;8.346;2022-08-11T17:27:06;11.03;;;2.73;;
1977;SDS011;989;53.016;8.346;2022-08-11T17:29:41;2.80;;;2.13;;
1977;SDS011;989;53.016;8.346;2022-08-11T17:32:16;5.63;;;2.50;;
1977;SDS011;989;53.016;8.346;2022-08-11T17:35:05;7.77;;;2.97;;
1977;SDS011;989;53.016;8.346;2022-08-11T17:37:55;7.00;;;2.50;;
1977;SDS011;989;53.016;8.346;2022-08-11T17:40:32;4.80;;;2.70;;
1977;SDS011;989;53.016;8.346;2022-08-11T17:43:02;9.37;;;2.60;;
1977;SDS011;989;53.016;8.346;2022-08-11T17:45:50;6.53;;;2.50;;
1977;SDS011;989;53.016;8.346;2022-08-11T17:48:41;3.97;;;2.20;;
1977;SDS011;989;53.016;8.346;2022-08-11T17:51:10;4.70;;;2.30;;
1977;SDS011;989;53.016;8.346;2022-08-11T17:54:02;5.10;;;2.33;;
1977;SDS011;989;53.016;8.346;2022-08-11T17:57:08;5.90;;;2.20;;
1977;SDS011;989;53.016;8.346;2022-08-11T17:59:54;4.73;;;2.57;;
1977;SDS011;989;53.016;8.346;2022-08-11T18:02:26;4.03;;;2.40;;
1977;SDS011;989;53.016;8.346;2022-08-11T18:05:14;16.90;;;2.63;;
1977;SDS011;989;53.016;8.346;2022-08-11T18:07:44;3.40;;;2.50;;
1977;SDS011;989;53.016;8.346;2022-08-11T18:10:31;5.27;;;2.40;;
1977;SDS011;989;53.016;8.346;2022-08-11T18:13:19;6.03;;;2.73;;
1977;SDS011;989;53.016;8.346;2022-08-11T18:16:07;3.70;;;2.40;;
1977;SDS011;989;53.016;8.346;2022-08-11T18:18:54;12.90;;;2.50;;
1977;SDS011;989;53.016;8.346;2022-08-11T18:21:40;8.50;;;2.60;;
1977;SDS011;989;53.016;8.346;2022-08-11T18:24:29;5.40;;;2.63;;
1977;SDS011;989;53.016;8.346;2022-08-11T18:27:20;6.50;;;2.40;;
1977;SDS011;989;53.016;8.346;2022-08-11T18:30:09;6.63;;;2.90;;
1977;SDS011;989;53.016;8.346;2022-08-11T18:32:55;4.20;;;2.00;;
1977;SDS011;989;53.016;8.346;2022-08-11T18:35:43;12.83;;;2.60;;
1977;SDS011;989;53.016;8.346;2022-08-11T18:38:41;8.87;;;2.10;;
1977;SDS011;989;53.016;8.346;2022-08-11T18:41:28;10.53;;;2.50;;
1977;SDS011;989;53.016;8.346;2022-08-11T18:44:18;3.73;;;2.00;;
1977;SDS011;989;53.016;8.346;2022-08-11T18:47:07;7.10;;;2.73;;
1977;SDS011;989;53.016;8.346;2022-08-11T18:49:56;8.13;;;2.70;;
1977;SDS011;989;53.016;8.346;2022-08-11T18:52:42;6.63;;;2.47;;
1977;SDS011;989;53.016;8.346;2022-08-11T18:55:31;5.17;;;2.43;;
1977;SDS011;989;53.016;8.346;2022-08-11T18:58:20;4.53;;;2.83;;
1977;SDS011;989;53.016;8.346;2022-08-11T19:01:12;15.77;;;2.60;;
1977;SDS011;989;53.016;8.346;2022-08-11T19:03:59;4.50;;;2.53;;
1977;SDS011;989;53.016;8.346;2022-08-11T19:06:48;4.77;;;2.57;;
1977;SDS011;989;53.016;8.346;2022-08-11T19:09:41;9.00;;;3.10;;
1977;SDS011;989;53.016;8.346;2022-08-11T19:12:32;9.13;;;3.27;;
1977;SDS011;989;53.016;8.346;2022-08-11T19:15:21;6.20;;;2.50;;
1977;SDS011;989;53.016;8.346;2022-08-11T19:18:09;4.27;;;2.80;;
1977;SDS011;989;53.016;8.346;2022-08-11T19:20:57;5.03;;;2.90;;
1977;SDS011;989;53.016;8.346;2022-08-11T19:23:43;4.60;;;2.80;;
1977;SDS011;989;53.016;8.346;2022-08-11T19:26:33;3.20;;;2.50;;
1977;SDS011;989;53.016;8.346;2022-08-11T19:29:19;6.43;;;2.67;;
1977;SDS011;989;53.016;8.346;2022-08-11T19:32:06;6.70;;;3.20;;
1977;SDS011;989;53.016;8.346;2022-08-11T19:34:52;4.07;;;2.77;;
1977;SDS011;989;53.016;8.346;2022-08-11T19:37:39;7.67;;;3.00;;